This is the latest recevied weather packets stored in our database for station/object SR5NLK-1. If no packets are shown the sender has not sent any weather packets the latest 10 day(s).
| Time | Temp. | Humidity | Pressure | Rain* | Wind** | Luminosity | Snow |
|---|---|---|---|---|---|---|---|
| 1787635505 | 21.67° C | 72% | 1085.7 hPa | 0 mm | - | - | - |
| 1787635456 | 15° C | 95% | 1047.8 hPa | 0 mm | - | - | - |
| 1787635205 | 21.67° C | 75% | 1055.3 hPa | 0 mm | - | - | - |
| 1787635089 | 13.89° C | 94% | 1072.5 hPa | 0 mm | - | - | - |
| 1787634905 | 21.11° C | 78% | 1045.7 hPa | 0 mm | - | - | - |
| 1787634655 | 11.67° C | 93% | 1081 hPa | 0 mm | - | - | - |
| 1787634605 | 20.56° C | 83% | 1093.7 hPa | 0 mm | - | - | - |
| 1787634305 | 20° C | 89% | 1087 hPa | 0 mm | - | - | - |
| 1787634005 | 18.89° C | 91% | 1079.4 hPa | 0 mm | - | - | - |
| 1787633704 | 18.33° C | 93% | 1084.7 hPa | 0 mm | - | - | - |
| 1787633468 | 9.44° C | 91% | 1056.4 hPa | 0 mm | - | - | - |
| 1787633405 | 17.78° C | 95% | 1045.9 hPa | 0 mm | - | - | - |
| 1787633105 | 16.67° C | 95% | 1028.7 hPa | 0 mm | - | - | - |
| 1787633105 | 9.44° C | 90% | 1031.9 hPa | 0 mm | - | - | - |
| 1787632805 | 15° C | 95% | 1047.8 hPa | 0 mm | - | - | - |
| 1787632687 | 9.44° C | 90% | 1041.4 hPa | 0 mm | - | - | - |
| 1787632505 | 13.89° C | 94% | 1072.5 hPa | 0 mm | - | - | - |
| 1787632281 | 9.44° C | 90% | 1051.7 hPa | 0 mm | - | - | - |
| 1787632247 | 9.44° C | 90% | 1051.7 hPa | 0 mm | - | - | - |
| 1787632205 | 11.67° C | 93% | 1081 hPa | 0 mm | - | - | - |
| 1787631905 | 10.56° C | 92% | 990.1 hPa | 0 mm | - | - | - |
| 1787631724 | 10° C | 91% | 1035 hPa | 0 mm | - | - | - |
| 1787631672 | 8.89° C | 90% | 1062.7 hPa | 0 mm | - | - | - |
| 1787631639 | 8.89° C | 90% | 1062.7 hPa | 0 mm | - | - | - |
| 1787631605 | 10° C | 91% | 1086.3 hPa | 0 mm | - | - | - |
* Rain latest hour (hover to see other rain measurements)
** Current wind speed in m/s (hover to see current wind gust speed)